Airfield :
LOGIN :

Register | Disclaimer

   EN    FR    IT 

 










Legend :    VFR   Marginal VFR   IFR   Intensive IFR   Very Intensive IFR
Visi :
Ceiling :
>= 8 km
>= 3000ft
5 to 8 km
1000 to 3000 ft
1500m to 5 km
500 to 1000 ft
800 to 1500m
200 to 500 ft
< 800m
< 200 ft
Symbols :   Thunderstorms  Fog  Heavy snow  Heavy precipitations  Wind > 20 kt
SIGMETs :     Misc.  Thunderstorms  Icing  Turbulence  Mountain Waves  Volcanic Ashes






- Airport Elevation : 164 ft
- IATA code : VBY


ESSV - Visby

CURRENT METAR :
  • 200620Z VRB01KT CAVOK 12/11 Q1011

EXPIRED METARs :
  • 200550Z 08005KT 060V120 CAVOK 11/10 Q1010
  • 200520Z 08004KT CAVOK 11/10 Q1010 RESH
  • 200450Z VRB02KT 9999 -SHRA SCT070TCU BKN085 11/09 Q1010
  • 200420Z 01003KT 340V040 CAVOK 10/09 Q1010
  • 200350Z 00000KT CAVOK 10/09 Q1010

TAF TAF ESSV
Valid from the 20 at 06:00 until the 20 at 15:00 UTC


200530Z 2006/2015 04005KT CAVOK
TEMPO 2006/2009 5000 SHRA BKN040CB
BECMG 2009/2011 2500 BR BKN003
TEMPO 2011/2015 9999 NSW SCT003



MET'MAP, your aeronautical weather chart ! - Copyright ORBIFLY December 2007 - Disclaimer

ORBIFLY MET'MAP TEAM :

Programming & Development : Alexandra Zaïnal
Original concept : Baudouin d'Aumeries
Technical & hardware support : Manuel Goepfert
Assistance : Marc-Olivier Méhu

Contact : metmap@orbifly.com




SOURCES & CREDITS :

   NOAA